Time;durP1;ratioP1;P1;durP2;ratioP2;P2;SDS_P1;SDS_P2;PMS_P1;PMS_P2;Temp;Humidity;BMP_temperature;BMP_pressure;BME280_temperature;BME280_humidity;BME280_pressure;Samples;Min_cycle;Max_cycle;Signal;HPM_P1;HPM_P2
2022/04/30 00:02:07;;;;;;;4.60;2.88;;;;;;;;;;7404109;19;20132;-80
2022/04/30 00:04:40;;;;;;;3.80;2.45;;;;;;;;;;7405608;19;19995;-80
2022/04/30 00:07:06;;;;;;;5.30;3.33;;;;;;;;;;7400144;19;19999;-80
2022/04/30 00:09:32;;;;;;;5.07;2.88;;;;;;;;;;7404837;19;20058;-79
2022/04/30 00:11:58;;;;;;;6.25;2.78;;;;;;;;;;7403934;19;20444;-80
2022/04/30 00:14:24;;;;;;;3.35;2.30;;;;;;;;;;7402761;19;20007;-80
2022/04/30 00:16:50;;;;;;;4.88;2.75;;;;;;;;;;7400898;19;20051;-80
2022/04/30 00:19:15;;;;;;;5.38;2.60;;;;;;;;;;7405073;19;20018;-80
2022/04/30 00:21:41;;;;;;;4.70;2.45;;;;;;;;;;7400008;19;19998;-80
2022/04/30 00:24:07;;;;;;;6.20;2.53;;;;;;;;;;7404964;19;20017;-80
2022/04/30 00:26:32;;;;;;;4.85;2.67;;;;;;;;;;7402565;19;20106;-78
2022/04/30 00:28:58;;;;;;;7.40;2.80;;;;;;;;;;7402944;19;19999;-80
2022/04/30 00:31:25;;;;;;;3.30;2.63;;;;;;;;;;7400000;19;20075;-80
2022/04/30 00:33:51;;;;;;;3.47;2.70;;;;;;;;;;7405394;19;20349;-80
2022/04/30 00:36:16;;;;;;;3.78;2.42;;;;;;;;;;7401574;19;20020;-80
2022/04/30 00:38:41;;;;;;;4.20;2.35;;;;;;;;;;7402974;19;20309;-79
2022/04/30 00:41:08;;;;;;;3.78;2.13;;;;;;;;;;7402617;19;20014;-80
2022/04/30 00:43:50;;;;;;;3.90;2.47;;;;;;;;;;7405446;19;19999;-80
2022/04/30 00:46:23;;;;;;;6.90;2.63;;;;;;;;;;7397651;19;20035;-80
2022/04/30 00:48:50;;;;;;;3.83;2.70;;;;;;;;;;7404595;19;20047;-80
2022/04/30 00:51:20;;;;;;;3.50;2.55;;;;;;;;;;7400038;19;20378;-80
2022/04/30 00:53:48;;;;;;;8.63;3.10;;;;;;;;;;7403410;19;20095;-80
2022/04/30 00:56:15;;;;;;;3.85;2.50;;;;;;;;;;7400647;19;20006;-80
2022/04/30 00:58:42;;;;;;;2.97;2.17;;;;;;;;;;7404848;19;20007;-80
2022/04/30 01:01:08;;;;;;;2.65;1.75;;;;;;;;;;7404087;19;20013;-79
2022/04/30 01:03:33;;;;;;;3.55;2.55;;;;;;;;;;7402724;19;20017;-80
2022/04/30 01:06:03;;;;;;;4.32;2.60;;;;;;;;;;7398520;19;20448;-78
2022/04/30 01:08:29;;;;;;;3.78;2.58;;;;;;;;;;7403442;19;20010;-80
2022/04/30 01:11:00;;;;;;;3.30;2.20;;;;;;;;;;7398579;19;20043;-80
2022/04/30 01:13:27;;;;;;;8.52;2.58;;;;;;;;;;7403131;19;20019;-80
2022/04/30 01:15:52;;;;;;;3.30;2.63;;;;;;;;;;7397844;19;20488;-80
2022/04/30 01:18:18;;;;;;;3.92;2.50;;;;;;;;;;7401476;19;20018;-80
2022/04/30 01:20:51;;;;;;;4.97;3.25;;;;;;;;;;7399521;19;20005;-80
2022/04/30 01:23:17;;;;;;;6.90;3.17;;;;;;;;;;7404460;19;20018;-79
2022/04/30 01:25:44;;;;;;;3.65;2.78;;;;;;;;;;7404025;19;20009;-79
2022/04/30 01:28:11;;;;;;;5.65;2.63;;;;;;;;;;7405466;19;20010;-79
2022/04/30 01:30:36;;;;;;;4.75;2.85;;;;;;;;;;7404236;19;19998;-79
2022/04/30 01:38:29;;;;;;;5.32;3.03;;;;;;;;;;7405855;19;20028;-80
2022/04/30 01:40:55;;;;;;;4.65;2.80;;;;;;;;;;7403830;19;20317;-79
2022/04/30 01:43:21;;;;;;;6.70;3.20;;;;;;;;;;7404918;19;20074;-79
2022/04/30 01:45:47;;;;;;;5.45;3.13;;;;;;;;;;7402641;19;20415;-79
2022/04/30 01:48:14;;;;;;;9.25;3.25;;;;;;;;;;7406854;19;20424;-80
2022/04/30 01:50:41;;;;;;;3.67;2.65;;;;;;;;;;7400441;19;20013;-80
2022/04/30 01:53:06;;;;;;;3.60;2.67;;;;;;;;;;7405002;19;20006;-79
2022/04/30 01:55:32;;;;;;;2.75;2.30;;;;;;;;;;7400001;19;20026;-79
2022/04/30 01:57:57;;;;;;;4.25;2.50;;;;;;;;;;7402519;19;20014;-79
2022/04/30 02:00:22;;;;;;;3.45;2.33;;;;;;;;;;7398193;19;20014;-79
2022/04/30 02:02:50;;;;;;;7.10;2.75;;;;;;;;;;7401306;19;20011;-79
2022/04/30 02:05:17;;;;;;;3.55;2.70;;;;;;;;;;7393615;19;20015;-79
2022/04/30 02:07:49;;;;;;;4.63;3.00;;;;;;;;;;7399933;19;20103;-79
2022/04/30 02:10:15;;;;;;;4.75;2.97;;;;;;;;;;7401161;19;20031;-79
2022/04/30 02:12:41;;;;;;;5.38;2.95;;;;;;;;;;7403369;19;20003;-79
2022/04/30 02:15:08;;;;;;;4.75;2.65;;;;;;;;;;7399128;19;20010;-79
2022/04/30 02:17:36;;;;;;;7.40;3.33;;;;;;;;;;7405434;19;20331;-79
2022/04/30 02:22:47;;;;;;;4.47;2.67;;;;;;;;;;7404136;19;20437;-79
2022/04/30 02:25:14;;;;;;;9.15;2.78;;;;;;;;;;7395600;19;20272;-79
2022/04/30 02:27:42;;;;;;;4.32;2.70;;;;;;;;;;7402012;19;20013;-79
2022/04/30 02:30:11;;;;;;;10.48;2.97;;;;;;;;;;7398088;19;20014;-79
2022/04/30 02:32:48;;;;;;;4.50;2.78;;;;;;;;;;7402438;19;20002;-79
2022/04/30 02:35:15;;;;;;;5.10;3.08;;;;;;;;;;7397936;19;20047;-79
2022/04/30 02:37:44;;;;;;;4.88;3.05;;;;;;;;;;7403298;19;20488;-79
2022/04/30 02:40:14;;;;;;;7.00;2.72;;;;;;;;;;7399971;19;20113;-79
2022/04/30 02:42:44;;;;;;;4.18;2.80;;;;;;;;;;7397220;19;20031;-80
2022/04/30 02:45:11;;;;;;;4.97;3.28;;;;;;;;;;7399132;19;20430;-79
2022/04/30 02:47:38;;;;;;;5.53;2.90;;;;;;;;;;7399799;19;20110;-79
2022/04/30 02:50:04;;;;;;;3.78;2.50;;;;;;;;;;7397577;19;20018;-79
2022/04/30 02:52:30;;;;;;;4.90;3.20;;;;;;;;;;7400152;19;20011;-79
2022/04/30 02:54:55;;;;;;;4.60;3.20;;;;;;;;;;7405223;19;19999;-79
2022/04/30 02:57:20;;;;;;;4.00;2.80;;;;;;;;;;7406632;19;20014;-79
2022/04/30 02:59:54;;;;;;;3.42;2.38;;;;;;;;;;7410931;19;19987;-79
2022/04/30 03:02:22;;;;;;;4.03;2.55;;;;;;;;;;7410042;19;20016;-79
2022/04/30 03:04:52;;;;;;;5.68;2.78;;;;;;;;;;7407004;19;20007;-79
2022/04/30 03:07:18;;;;;;;4.63;3.10;;;;;;;;;;7406766;19;20067;-79
2022/04/30 03:09:47;;;;;;;8.00;3.17;;;;;;;;;;7408643;19;20341;-79
2022/04/30 03:12:13;;;;;;;4.82;3.35;;;;;;;;;;7403865;19;20654;-79
2022/04/30 03:14:38;;;;;;;6.18;3.05;;;;;;;;;;7405862;19;20035;-79
2022/04/30 03:22:32;;;;;;;4.00;2.42;;;;;;;;;;7429977;19;20024;-79
2022/04/30 03:24:57;;;;;;;6.20;3.05;;;;;;;;;;7428067;19;20007;-79
2022/04/30 03:27:22;;;;;;;6.80;3.35;;;;;;;;;;7429722;19;20068;-79
2022/04/30 03:29:48;;;;;;;4.05;2.90;;;;;;;;;;7424626;19;20014;-79
2022/04/30 03:32:13;;;;;;;4.75;2.85;;;;;;;;;;7406526;19;20036;-79
2022/04/30 03:34:39;;;;;;;4.60;3.25;;;;;;;;;;7408310;19;20026;-79
2022/04/30 03:37:04;;;;;;;5.07;2.97;;;;;;;;;;7402090;19;20006;-79
2022/04/30 03:39:30;;;;;;;3.95;2.92;;;;;;;;;;7408970;19;20002;-79
2022/04/30 03:41:55;;;;;;;5.55;3.28;;;;;;;;;;7407311;19;20018;-79
2022/04/30 03:44:20;;;;;;;5.60;3.33;;;;;;;;;;7405303;19;20006;-79
2022/04/30 03:46:46;;;;;;;7.10;2.80;;;;;;;;;;7404192;19;20006;-79
2022/04/30 03:49:12;;;;;;;7.07;3.42;;;;;;;;;;7408981;19;20455;-79
2022/04/30 03:51:37;;;;;;;6.38;3.33;;;;;;;;;;7406454;19;19998;-79
2022/04/30 03:54:03;;;;;;;6.30;3.67;;;;;;;;;;7399733;19;20050;-79
2022/04/30 03:56:28;;;;;;;5.00;3.38;;;;;;;;;;7394884;19;20568;-78
2022/04/30 03:58:54;;;;;;;7.03;3.30;;;;;;;;;;7395028;19;19999;-78
2022/04/30 04:01:19;;;;;;;6.28;3.17;;;;;;;;;;7397698;19;20006;-79
2022/04/30 04:03:45;;;;;;;6.47;3.42;;;;;;;;;;7397896;19;20086;-78
2022/04/30 04:06:13;;;;;;;4.93;3.05;;;;;;;;;;7401503;19;20376;-78
2022/04/30 04:08:39;;;;;;;7.80;3.83;;;;;;;;;;7403643;19;20023;-78
2022/04/30 04:11:10;;;;;;;7.47;3.65;;;;;;;;;;7402734;19;20002;-79
2022/04/30 04:19:03;;;;;;;6.68;4.20;;;;;;;;;;7409922;19;20013;-79
2022/04/30 04:21:29;;;;;;;4.30;3.08;;;;;;;;;;7411184;19;20421;-79
2022/04/30 04:26:38;;;;;;;4.93;3.45;;;;;;;;;;7411515;19;20686;-79
2022/04/30 04:29:03;;;;;;;7.90;3.90;;;;;;;;;;7411967;19;20345;-80
2022/04/30 04:31:28;;;;;;;6.28;4.00;;;;;;;;;;7411805;19;20074;-80
2022/04/30 04:33:54;;;;;;;6.97;4.28;;;;;;;;;;7409827;19;20010;-80
2022/04/30 04:36:19;;;;;;;3.92;3.03;;;;;;;;;;7408858;19;20014;-79
2022/04/30 04:38:45;;;;;;;6.05;3.65;;;;;;;;;;7410618;19;20031;-79
2022/04/30 04:41:10;;;;;;;5.18;3.55;;;;;;;;;;7405826;19;20367;-79
2022/04/30 04:43:35;;;;;;;5.68;3.72;;;;;;;;;;7406636;19;20028;-79
2022/04/30 04:46:02;;;;;;;7.50;3.78;;;;;;;;;;7407025;19;20007;-79
2022/04/30 04:48:28;;;;;;;6.70;3.92;;;;;;;;;;7411698;19;20027;-79
2022/04/30 04:50:54;;;;;;;4.93;3.75;;;;;;;;;;7403675;19;20002;-79
2022/04/30 04:53:19;;;;;;;8.10;3.85;;;;;;;;;;7405873;19;20016;-79
2022/04/30 04:55:45;;;;;;;5.20;3.65;;;;;;;;;;7402909;19;20015;-78
2022/04/30 04:58:10;;;;;;;5.03;3.72;;;;;;;;;;7387024;19;20010;-79
2022/04/30 05:00:35;;;;;;;6.38;4.20;;;;;;;;;;7391684;19;20005;-79
2022/04/30 05:03:01;;;;;;;6.45;3.70;;;;;;;;;;7391384;19;20078;-79
2022/04/30 05:05:26;;;;;;;11.52;4.75;;;;;;;;;;7395594;19;20036;-79
2022/04/30 05:07:51;;;;;;;8.40;4.60;;;;;;;;;;7397128;19;20015;-79
2022/04/30 05:10:17;;;;;;;7.30;3.67;;;;;;;;;;7394289;19;20086;-79
2022/04/30 05:12:45;;;;;;;6.20;4.22;;;;;;;;;;7398915;19;19991;-79
2022/04/30 05:15:11;;;;;;;9.00;4.13;;;;;;;;;;7392493;19;20020;-79
2022/04/30 05:17:36;;;;;;;6.45;3.83;;;;;;;;;;7399556;19;20087;-79
2022/04/30 05:20:02;;;;;;;4.95;3.25;;;;;;;;;;7394365;19;20089;-80
2022/04/30 05:22:28;;;;;;;5.03;3.40;;;;;;;;;;7391910;19;20505;-79
2022/04/30 05:24:53;;;;;;;9.90;4.35;;;;;;;;;;7386862;19;20570;-81
2022/04/30 05:27:18;;;;;;;6.50;3.78;;;;;;;;;;7398291;19;21414;-81
2022/04/30 05:29:43;;;;;;;5.18;3.72;;;;;;;;;;7398886;19;20512;-81
2022/04/30 05:32:09;;;;;;;6.10;4.45;;;;;;;;;;7398651;19;20002;-83
2022/04/30 05:34:34;;;;;;;6.75;4.35;;;;;;;;;;7397632;19;20010;-83
2022/04/30 05:36:59;;;;;;;5.72;3.97;;;;;;;;;;7397682;19;20018;-83
2022/04/30 05:39:26;;;;;;;6.20;4.35;;;;;;;;;;7400570;19;20096;-83
2022/04/30 05:41:51;;;;;;;10.00;4.10;;;;;;;;;;7398274;19;20006;-82
2022/04/30 05:44:16;;;;;;;6.85;4.50;;;;;;;;;;7399784;19;20006;-82
2022/04/30 05:46:42;;;;;;;5.22;4.22;;;;;;;;;;7398630;19;20444;-84
2022/04/30 05:49:07;;;;;;;7.78;4.28;;;;;;;;;;7395383;19;20014;-82
2022/04/30 05:51:32;;;;;;;6.38;4.47;;;;;;;;;;7391431;19;20549;-81
2022/04/30 05:53:58;;;;;;;6.18;4.65;;;;;;;;;;7393703;19;20516;-82
2022/04/30 05:56:23;;;;;;;11.00;5.70;;;;;;;;;;7398143;19;20086;-83
2022/04/30 05:58:48;;;;;;;11.98;6.40;;;;;;;;;;7395939;19;20010;-83
2022/04/30 06:01:14;;;;;;;8.02;5.15;;;;;;;;;;7398563;19;20023;-82
2022/04/30 06:03:39;;;;;;;8.50;5.32;;;;;;;;;;7397737;19;19995;-86
2022/04/30 06:06:05;;;;;;;7.65;4.70;;;;;;;;;;7399297;19;20003;-82
2022/04/30 06:08:31;;;;;;;8.50;5.40;;;;;;;;;;7397591;19;20023;-84
2022/04/30 06:10:56;;;;;;;7.97;4.88;;;;;;;;;;7396991;19;20516;-83
2022/04/30 06:13:22;;;;;;;8.30;5.30;;;;;;;;;;7397436;19;20047;-83
2022/04/30 06:15:47;;;;;;;9.68;4.57;;;;;;;;;;7394075;19;20110;-83
2022/04/30 06:18:15;;;;;;;6.20;4.60;;;;;;;;;;7391617;19;20033;-82
2022/04/30 06:20:40;;;;;;;12.45;5.63;;;;;;;;;;7384481;19;20057;-81
2022/04/30 06:23:06;;;;;;;6.95;4.90;;;;;;;;;;7394881;19;20523;-83
2022/04/30 06:25:31;;;;;;;6.35;4.38;;;;;;;;;;7392097;19;20010;-83
2022/04/30 06:27:57;;;;;;;7.10;4.80;;;;;;;;;;7397471;19;20442;-84
2022/04/30 06:30:23;;;;;;;8.52;4.95;;;;;;;;;;7401048;19;20010;-81
2022/04/30 06:32:50;;;;;;;6.35;5.05;;;;;;;;;;7395648;19;20029;-82
2022/04/30 06:35:16;;;;;;;7.18;4.68;;;;;;;;;;7396799;19;20018;-82
2022/04/30 06:37:41;;;;;;;10.57;5.22;;;;;;;;;;7398415;19;19998;-81
2022/04/30 06:40:07;;;;;;;7.78;4.40;;;;;;;;;;7396991;19;20084;-81
2022/04/30 06:42:44;;;;;;;8.75;5.57;;;;;;;;;;7388753;19;20018;-81
2022/04/30 06:45:10;;;;;;;6.63;4.80;;;;;;;;;;7394131;19;20017;-81
2022/04/30 06:47:36;;;;;;;6.45;4.95;;;;;;;;;;7395903;19;19998;-81
2022/04/30 06:50:02;;;;;;;8.20;4.82;;;;;;;;;;7396363;19;20021;-82
2022/04/30 06:52:27;;;;;;;9.25;5.78;;;;;;;;;;7393670;19;20141;-81
2022/04/30 06:57:36;;;;;;;10.25;5.60;;;;;;;;;;7398557;19;20152;-79
2022/04/30 07:01:25;;;;;;;10.05;5.38;;;;;;;;;;7401255;19;20151;-80
2022/04/30 07:02:48;;;;;;;6.68;4.72;;;;;;;;;;7400572;19;20348;-80
2022/04/30 07:05:13;;;;;;;5.50;4.60;;;;;;;;;;7400033;19;20106;-81
2022/04/30 07:07:38;;;;;;;8.35;5.50;;;;;;;;;;7401721;19;20444;-81
2022/04/30 07:10:04;;;;;;;7.35;5.40;;;;;;;;;;7400183;19;20014;-78
2022/04/30 07:12:29;;;;;;;8.57;4.95;;;;;;;;;;7401078;19;20368;-79
2022/04/30 07:14:55;;;;;;;7.28;4.95;;;;;;;;;;7399679;19;20067;-79
2022/04/30 07:17:20;;;;;;;11.60;5.25;;;;;;;;;;7401928;19;20010;-80
2022/04/30 07:19:45;;;;;;;7.07;5.25;;;;;;;;;;7406635;19;20478;-79
2022/04/30 07:22:11;;;;;;;7.13;5.40;;;;;;;;;;7399130;19;20017;-79
2022/04/30 07:24:36;;;;;;;7.40;4.97;;;;;;;;;;7406766;19;20482;-80
2022/04/30 07:27:04;;;;;;;7.53;5.13;;;;;;;;;;7393063;19;20017;-79
2022/04/30 07:29:30;;;;;;;7.53;5.53;;;;;;;;;;7401326;19;20014;-79
2022/04/30 07:31:55;;;;;;;7.05;5.10;;;;;;;;;;7403272;19;20026;-79
2022/04/30 07:34:22;;;;;;;5.32;4.28;;;;;;;;;;7401366;19;20015;-79
2022/04/30 07:36:48;;;;;;;7.93;5.13;;;;;;;;;;7398304;19;20397;-79
2022/04/30 07:39:13;;;;;;;8.32;5.07;;;;;;;;;;7396705;19;20065;-78
2022/04/30 07:41:38;;;;;;;7.68;5.22;;;;;;;;;;7398566;19;20330;-80
2022/04/30 07:44:04;;;;;;;10.25;4.97;;;;;;;;;;7396149;19;20022;-79
2022/04/30 07:46:29;;;;;;;6.53;5.20;;;;;;;;;;7389703;19;20125;-80
2022/04/30 07:48:54;;;;;;;8.63;4.65;;;;;;;;;;7399065;19;20010;-82
2022/04/30 07:51:33;;;;;;;8.07;5.80;;;;;;;;;;7396059;19;20014;-80
2022/04/30 07:54:02;;;;;;;6.22;4.53;;;;;;;;;;7393576;19;20078;-80
2022/04/30 07:56:28;;;;;;;6.35;4.90;;;;;;;;;;7385684;19;20014;-82
2022/04/30 07:58:53;;;;;;;7.97;5.30;;;;;;;;;;7389507;19;20388;-80
2022/04/30 08:01:18;;;;;;;8.85;5.45;;;;;;;;;;7390704;19;20451;-81
2022/04/30 08:03:44;;;;;;;6.40;4.85;;;;;;;;;;7388408;19;20087;-80
2022/04/30 08:06:09;;;;;;;6.20;4.55;;;;;;;;;;7390768;19;20018;-80
2022/04/30 08:08:34;;;;;;;8.52;5.05;;;;;;;;;;7389261;19;20007;-80
2022/04/30 08:11:00;;;;;;;9.65;5.60;;;;;;;;;;7391582;19;20022;-81
2022/04/30 08:13:26;;;;;;;6.55;5.30;;;;;;;;;;7392758;19;20040;-81
2022/04/30 08:15:51;;;;;;;7.13;4.85;;;;;;;;;;7388997;19;20066;-81
2022/04/30 08:18:17;;;;;;;5.82;4.47;;;;;;;;;;7392887;19;20023;-81
2022/04/30 08:20:43;;;;;;;11.50;5.38;;;;;;;;;;7388811;19;20016;-80
2022/04/30 08:23:08;;;;;;;9.77;5.68;;;;;;;;;;7391727;19;20014;-81
2022/04/30 08:25:35;;;;;;;7.82;5.18;;;;;;;;;;7391598;19;20015;-81
2022/04/30 08:28:04;;;;;;;7.82;5.38;;;;;;;;;;7391403;19;20019;-80
2022/04/30 08:30:31;;;;;;;6.18;5.00;;;;;;;;;;7388341;19;20018;-83
2022/04/30 08:32:57;;;;;;;7.35;5.80;;;;;;;;;;7389645;19;20110;-81
2022/04/30 08:35:22;;;;;;;7.50;5.20;;;;;;;;;;7389483;19;20500;-80
2022/04/30 08:37:47;;;;;;;8.20;5.38;;;;;;;;;;7389883;19;20014;-81
2022/04/30 08:40:12;;;;;;;6.82;5.05;;;;;;;;;;7386491;19;20096;-81
2022/04/30 08:42:38;;;;;;;9.93;5.35;;;;;;;;;;7385864;19;20440;-81
2022/04/30 08:45:07;;;;;;;7.30;5.50;;;;;;;;;;7387784;19;20002;-81
2022/04/30 08:47:41;;;;;;;7.13;4.97;;;;;;;;;;7390473;19;20384;-79
2022/04/30 08:50:08;;;;;;;7.22;5.38;;;;;;;;;;7391658;19;20433;-80
2022/04/30 08:52:34;;;;;;;7.15;5.00;;;;;;;;;;7386994;19;20012;-79
2022/04/30 08:54:59;;;;;;;9.07;4.97;;;;;;;;;;7387868;19;20033;-81
2022/04/30 08:57:24;;;;;;;6.90;4.50;;;;;;;;;;7388529;19;20011;-81
2022/04/30 08:59:51;;;;;;;8.73;5.55;;;;;;;;;;7387911;19;20341;-78
2022/04/30 09:02:16;;;;;;;6.63;4.57;;;;;;;;;;7387141;19;20543;-81
2022/04/30 09:04:49;;;;;;;8.23;4.90;;;;;;;;;;7390454;19;20444;-80
2022/04/30 09:07:17;;;;;;;9.70;4.68;;;;;;;;;;7387428;19;20125;-79
2022/04/30 09:09:43;;;;;;;6.90;4.85;;;;;;;;;;7393255;19;20022;-79
2022/04/30 09:12:11;;;;;;;5.93;4.65;;;;;;;;;;7397347;19;20077;-79
2022/04/30 09:14:40;;;;;;;6.05;4.43;;;;;;;;;;7396994;19;20625;-80
2022/04/30 09:17:10;;;;;;;6.50;4.65;;;;;;;;;;7386046;19;20111;-80
2022/04/30 09:19:45;;;;;;;7.55;5.35;;;;;;;;;;7390958;19;20071;-80
2022/04/30 09:22:10;;;;;;;6.95;4.45;;;;;;;;;;7388837;19;20011;-80
2022/04/30 09:24:50;;;;;;;10.13;4.28;;;;;;;;;;7390823;19;20455;-79
2022/04/30 09:27:16;;;;;;;7.40;4.55;;;;;;;;;;7389543;19;20447;-79
2022/04/30 09:29:42;;;;;;;6.18;4.22;;;;;;;;;;7392201;19;20077;-79
2022/04/30 09:32:07;;;;;;;6.13;4.57;;;;;;;;;;7382333;19;20010;-79
2022/04/30 09:37:42;;;;;;;7.95;4.35;;;;;;;;;;7387023;19;20055;-80
2022/04/30 09:40:18;;;;;;;6.63;4.68;;;;;;;;;;7388149;19;20038;-78
2022/04/30 09:42:48;;;;;;;7.35;4.22;;;;;;;;;;7387397;19;20834;-79
2022/04/30 09:45:26;;;;;;;6.45;4.35;;;;;;;;;;7382796;19;20471;-78
2022/04/30 09:47:53;;;;;;;5.88;4.47;;;;;;;;;;7388742;19;20010;-79
2022/04/30 09:55:53;;;;;;;9.07;4.53;;;;;;;;;;7384213;19;20015;-80
2022/04/30 09:58:27;;;;;;;7.95;4.47;;;;;;;;;;7389110;19;20017;-78
2022/04/30 10:00:59;;;;;;;6.85;4.50;;;;;;;;;;7390084;19;20082;-79
2022/04/30 10:03:27;;;;;;;5.32;4.18;;;;;;;;;;7386710;19;20096;-78
2022/04/30 10:06:00;;;;;;;9.50;4.93;;;;;;;;;;7387196;19;20011;-79
2022/04/30 10:08:39;;;;;;;5.90;4.38;;;;;;;;;;7384085;19;20025;-79
2022/04/30 10:11:24;;;;;;;5.25;4.55;;;;;;;;;;7387753;19;20014;-77
2022/04/30 10:14:05;;;;;;;5.80;4.22;;;;;;;;;;7390023;19;20006;-79
2022/04/30 10:16:31;;;;;;;5.40;3.90;;;;;;;;;;7383887;19;20116;-79
2022/04/30 10:19:09;;;;;;;6.50;4.35;;;;;;;;;;7385556;19;20007;-77
2022/04/30 10:21:34;;;;;;;6.13;4.50;;;;;;;;;;7388305;19;20468;-80
2022/04/30 10:24:01;;;;;;;5.53;4.40;;;;;;;;;;7392331;19;20017;-79
2022/04/30 10:26:26;;;;;;;6.15;4.47;;;;;;;;;;7396456;19;20022;-77
2022/04/30 10:29:08;;;;;;;6.28;4.43;;;;;;;;;;7417996;19;20041;-78
2022/04/30 10:31:42;;;;;;;5.43;4.15;;;;;;;;;;7417966;19;20011;-78
2022/04/30 10:34:08;;;;;;;6.20;3.97;;;;;;;;;;7415806;19;20031;-79
2022/04/30 10:36:36;;;;;;;6.30;4.50;;;;;;;;;;7415053;19;20019;-79
2022/04/30 10:39:04;;;;;;;4.18;3.78;;;;;;;;;;7389751;19;20010;-81
2022/04/30 10:41:41;;;;;;;6.13;4.35;;;;;;;;;;7388313;19;20003;-81
2022/04/30 10:44:07;;;;;;;6.35;3.55;;;;;;;;;;7384974;19;20342;-80
2022/04/30 10:46:37;;;;;;;5.57;3.60;;;;;;;;;;7387120;19;20010;-80
2022/04/30 10:49:05;;;;;;;6.07;3.60;;;;;;;;;;7389056;19;20010;-80
2022/04/30 10:51:41;;;;;;;5.40;4.25;;;;;;;;;;7387010;19;20035;-80
2022/04/30 10:54:13;;;;;;;5.72;4.18;;;;;;;;;;7388556;19;20014;-80
2022/04/30 10:56:39;;;;;;;6.40;3.92;;;;;;;;;;7384879;19;20492;-81
2022/04/30 10:59:10;;;;;;;7.00;3.90;;;;;;;;;;7389662;19;20344;-81
2022/04/30 11:01:48;;;;;;;5.53;4.03;;;;;;;;;;7388712;19;20023;-81
2022/04/30 11:04:18;;;;;;;5.18;3.60;;;;;;;;;;7392286;19;20026;-79
2022/04/30 11:06:52;;;;;;;4.25;3.13;;;;;;;;;;7385454;19;20613;-81
2022/04/30 11:09:47;;;;;;;5.07;3.22;;;;;;;;;;7390432;19;20444;-80
2022/04/30 11:16:21;;;;;;;4.97;3.53;;;;;;;;;;7391552;19;20125;-81
2022/04/30 11:19:55;;;;;;;5.90;3.40;;;;;;;;;;7393295;19;20065;-80
2022/04/30 11:26:43;;;;;;;4.82;3.95;;;;;;;;;;7392225;19;20043;-79
2022/04/30 11:29:30;;;;;;;5.10;3.60;;;;;;;;;;7393822;19;20022;-80
2022/04/30 11:39:21;;;;;;;7.90;4.00;;;;;;;;;;7393785;19;20082;-79
2022/04/30 11:42:41;;;;;;;7.80;4.63;;;;;;;;;;7392042;19;20398;-80
2022/04/30 11:49:38;;;;;;;6.45;4.10;;;;;;;;;;7393216;19;20090;-80
2022/04/30 11:52:56;;;;;;;4.78;3.70;;;;;;;;;;7391280;19;20031;-79
2022/04/30 11:56:45;;;;;;;8.38;5.25;;;;;;;;;;7389532;19;20449;-79
2022/04/30 12:00:02;;;;;;;7.55;3.90;;;;;;;;;;7393946;19;20487;-80
2022/04/30 12:06:28;;;;;;;5.90;5.10;;;;;;;;;;7394421;19;20026;-80
2022/04/30 12:09:21;;;;;;;7.05;4.65;;;;;;;;;;7394797;19;20006;-79
2022/04/30 12:40:23;;;;;;;5.97;4.82;;;;;;;;;;7389508;19;20019;-81
2022/04/30 12:44:05;;;;;;;6.10;4.18;;;;;;;;;;7392080;19;20004;-80
2022/04/30 12:47:12;;;;;;;8.65;4.70;;;;;;;;;;7389394;19;20011;-80
2022/04/30 12:50:44;;;;;;;5.68;4.40;;;;;;;;;;7392749;19;20299;-79
2022/04/30 12:54:13;;;;;;;5.00;4.20;;;;;;;;;;7390546;19;20074;-80
2022/04/30 12:57:39;;;;;;;6.22;3.90;;;;;;;;;;7390245;19;20531;-80
2022/04/30 13:01:11;;;;;;;6.03;3.38;;;;;;;;;;7392528;19;20002;-80
2022/04/30 13:04:41;;;;;;;5.30;3.30;;;;;;;;;;7389918;19;20026;-80
2022/04/30 13:08:13;;;;;;;;;;;;;;;;;;;;;
2022/04/30 13:13:57;;;;;;;3.20;2.15;;;;;;;;;;7388090;19;20580;-81
2022/04/30 13:27:13;;;;;;;2.13;1.70;;;;;;;;;;7391294;19;20463;-80
2022/04/30 13:34:00;;;;;;;4.85;2.30;;;;;;;;;;7391071;19;20013;-81
2022/04/30 13:36:26;;;;;;;;;;;;;;;;;;7388497;19;20507;-80
2022/04/30 13:38:52;;;;;;;1.95;1.52;;;;;;;;;;7385901;19;19936;-79
2022/04/30 13:41:55;;;;;;;2.67;1.70;;;;;;;;;;7392362;19;20015;-81
2022/04/30 13:45:13;;;;;;;2.08;1.60;;;;;;;;;;7388391;19;20019;-80
2022/04/30 13:48:49;;;;;;;3.15;1.88;;;;;;;;;;7393058;19;20333;-81
2022/04/30 13:52:09;;;;;;;2.85;1.60;;;;;;;;;;7392090;19;20432;-81
2022/04/30 13:59:16;;;;;;;3.78;2.75;;;;;;;;;;7392839;19;20148;-80
2022/04/30 14:09:47;;;;;;;2.13;1.75;;;;;;;;;;7385119;19;19999;-79
2022/04/30 14:16:29;;;;;;;;;;;;;;;;;;;;;
2022/04/30 14:38:36;;;;;;;;;;;;;;;;;;;;;
2022/04/30 14:41:40;;;;;;;2.63;1.13;;;;;;;;;;7388270;19;20349;-79
2022/04/30 15:00:44;;;;;;;2.22;1.40;;;;;;;;;;7399610;19;20007;-79
2022/04/30 15:07:29;;;;;;;1.75;1.10;;;;;;;;;;7394511;19;20297;-79
2022/04/30 15:10:34;;;;;;;;;;;;;;;;;;;;;
2022/04/30 15:13:52;;;;;;;2.22;1.20;;;;;;;;;;7389114;19;20008;-79
2022/04/30 15:16:55;;;;;;;1.52;1.15;;;;;;;;;;7389439;19;19995;-79
2022/04/30 15:22:51;;;;;;;4.10;1.25;;;;;;;;;;7390462;19;20325;-79
2022/04/30 15:29:36;;;;;;;1.70;1.40;;;;;;;;;;7390776;19;20091;-79
2022/04/30 15:33:07;;;;;;;1.83;1.38;;;;;;;;;;7389189;19;20413;-79
2022/04/30 15:36:36;;;;;;;4.80;3.17;;;;;;;;;;7386553;19;20794;-79
2022/04/30 15:52:49;;;;;;;3.58;1.60;;;;;;;;;;7391835;19;20483;-79
2022/04/30 15:55:14;;;;;;;2.55;1.67;;;;;;;;;;7391684;19;20055;-80
2022/04/30 15:57:40;;;;;;;1.83;1.50;;;;;;;;;;7390755;19;20524;-77
2022/04/30 16:00:06;;;;;;;4.25;1.95;;;;;;;;;;7396160;19;20007;-80
2022/04/30 16:02:31;;;;;;;4.63;2.22;;;;;;;;;;7393185;19;20018;-78
2022/04/30 16:04:56;;;;;;;4.82;2.08;;;;;;;;;;7392236;19;20013;-78
2022/04/30 16:07:21;;;;;;;3.22;1.90;;;;;;;;;;7393023;19;20018;-78
2022/04/30 16:09:47;;;;;;;2.47;2.28;;;;;;;;;;7393593;19;20019;-81
2022/04/30 16:12:12;;;;;;;3.22;2.03;;;;;;;;;;7395161;19;20019;-78
2022/04/30 16:14:38;;;;;;;4.07;1.90;;;;;;;;;;7395739;19;20077;-78
2022/04/30 16:17:05;;;;;;;2.85;2.30;;;;;;;;;;7392033;19;20018;-79
2022/04/30 16:19:32;;;;;;;3.88;2.72;;;;;;;;;;7393590;19;20558;-78
2022/04/30 16:21:57;;;;;;;4.20;2.53;;;;;;;;;;7390604;19;20015;-78
2022/04/30 16:24:22;;;;;;;6.15;3.30;;;;;;;;;;7392616;19;20022;-79
2022/04/30 16:26:50;;;;;;;3.55;2.30;;;;;;;;;;7395000;19;20010;-79
2022/04/30 16:29:16;;;;;;;3.15;2.20;;;;;;;;;;7395767;19;20074;-79
2022/04/30 16:31:42;;;;;;;3.47;2.20;;;;;;;;;;7384755;19;20018;-79
2022/04/30 16:34:08;;;;;;;4.50;2.20;;;;;;;;;;7383514;19;20057;-79
2022/04/30 16:36:34;;;;;;;2.15;1.83;;;;;;;;;;7389762;19;20048;-79
2022/04/30 16:39:03;;;;;;;2.03;1.83;;;;;;;;;;7389859;19;20336;-79
2022/04/30 16:41:28;;;;;;;2.22;1.77;;;;;;;;;;7387972;19;20028;-78
2022/04/30 16:43:53;;;;;;;3.33;2.20;;;;;;;;;;7390505;19;20018;-79
2022/04/30 16:46:19;;;;;;;4.05;2.28;;;;;;;;;;7387649;19;20014;-78
2022/04/30 16:48:45;;;;;;;2.63;2.05;;;;;;;;;;7389415;19;20046;-78
2022/04/30 16:53:55;;;;;;;4.63;2.15;;;;;;;;;;7391305;19;20039;-78
2022/04/30 16:59:11;;;;;;;3.78;1.80;;;;;;;;;;7392612;19;20046;-78
2022/04/30 17:01:39;;;;;;;4.32;2.28;;;;;;;;;;7387108;19;20010;-79
2022/04/30 17:04:04;;;;;;;3.85;2.42;;;;;;;;;;7384055;19;20025;-79
2022/04/30 17:06:30;;;;;;;3.75;2.20;;;;;;;;;;7393570;19;20006;-78
2022/04/30 17:08:57;;;;;;;3.85;2.50;;;;;;;;;;7391312;19;20038;-77
2022/04/30 17:11:22;;;;;;;3.88;2.20;;;;;;;;;;7385741;19;20047;-78
2022/04/30 17:13:48;;;;;;;4.00;2.53;;;;;;;;;;7386594;19;20015;-78
2022/04/30 17:16:14;;;;;;;3.08;1.92;;;;;;;;;;7389249;19;20050;-78
2022/04/30 17:18:39;;;;;;;2.90;2.42;;;;;;;;;;7390086;19;20006;-78
2022/04/30 17:21:05;;;;;;;3.42;2.53;;;;;;;;;;7386472;19;20037;-76
2022/04/30 17:23:31;;;;;;;4.15;2.60;;;;;;;;;;7408971;19;20007;-75
2022/04/30 17:25:57;;;;;;;3.28;2.20;;;;;;;;;;7415539;19;20002;-76
2022/04/30 17:28:22;;;;;;;5.13;2.28;;;;;;;;;;7413678;19;20020;-75
2022/04/30 17:40:06;;;;;;;4.53;2.75;;;;;;;;;;7382288;19;20035;-77
2022/04/30 17:42:43;;;;;;;2.95;2.35;;;;;;;;;;7387199;19;20014;-78
2022/04/30 17:45:16;;;;;;;6.20;2.47;;;;;;;;;;7386691;19;20035;-78
2022/04/30 17:47:43;;;;;;;4.10;2.22;;;;;;;;;;7390547;19;20066;-79
2022/04/30 17:50:17;;;;;;;2.58;1.88;;;;;;;;;;7386701;19;20019;-78
2022/04/30 17:52:43;;;;;;;12.30;2.70;;;;;;;;;;7387461;19;20006;-79
2022/04/30 17:55:10;;;;;;;5.18;2.70;;;;;;;;;;7383507;19;20006;-78
2022/04/30 17:57:37;;;;;;;4.25;2.80;;;;;;;;;;7384255;19;20479;-78
2022/04/30 18:00:07;;;;;;;3.55;2.78;;;;;;;;;;7388314;19;20010;-78
2022/04/30 18:02:35;;;;;;;4.63;2.80;;;;;;;;;;7386882;19;20018;-79
2022/04/30 18:05:02;;;;;;;2.75;2.30;;;;;;;;;;7380547;19;20023;-77
2022/04/30 18:07:34;;;;;;;8.30;2.35;;;;;;;;;;7389160;19;20002;-79
2022/04/30 18:10:05;;;;;;;3.25;2.40;;;;;;;;;;7387765;19;20452;-78
2022/04/30 18:12:31;;;;;;;3.88;2.67;;;;;;;;;;7386682;19;20058;-79
2022/04/30 18:14:56;;;;;;;3.88;2.38;;;;;;;;;;7386389;19;20129;-78
2022/04/30 18:17:24;;;;;;;3.30;2.20;;;;;;;;;;7390149;19;19999;-78
2022/04/30 18:19:51;;;;;;;4.05;2.80;;;;;;;;;;7387328;19;20017;-78
2022/04/30 18:22:17;;;;;;;2.90;2.35;;;;;;;;;;7386546;19;20032;-78
2022/04/30 18:24:42;;;;;;;2.35;2.00;;;;;;;;;;7384996;19;20484;-78
2022/04/30 18:27:07;;;;;;;3.78;2.67;;;;;;;;;;7394409;19;20014;-77